createdAt,value
2023-03-04T00:00:49.457Z,20.60
2023-03-04T00:03:19.305Z,22.33
2023-03-04T00:05:47.871Z,17.90
2023-03-04T00:08:16.221Z,15.20
2023-03-04T00:10:45.106Z,14.43
2023-03-04T00:13:13.534Z,18.08
2023-03-04T00:15:41.862Z,16.02
2023-03-04T00:18:10.164Z,20.02
2023-03-04T00:20:39.897Z,20.52
2023-03-04T00:23:08.230Z,21.48
2023-03-04T00:25:36.579Z,18.35
2023-03-04T00:28:05.122Z,13.48
2023-03-04T00:30:33.792Z,19.38
2023-03-04T00:33:02.271Z,14.43
2023-03-04T00:35:30.655Z,15.00
2023-03-04T00:38:00.512Z,15.93
2023-03-04T00:40:29.069Z,11.25
2023-03-04T00:42:57.368Z,15.20
2023-03-04T00:45:25.758Z,15.32
2023-03-04T00:47:54.057Z,17.70
2023-03-04T00:50:22.423Z,18.42
2023-03-04T00:52:50.752Z,20.15
2023-03-04T00:55:20.494Z,20.35
2023-03-04T00:57:48.871Z,15.30
2023-03-04T01:00:18.361Z,13.32
2023-03-04T01:02:46.800Z,18.73
2023-03-04T01:05:15.945Z,14.65
2023-03-04T01:07:44.316Z,14.25
2023-03-04T01:10:14.592Z,19.50
2023-03-04T01:12:44.721Z,22.48
2023-03-04T01:15:14.896Z,17.00
2023-03-04T01:17:43.296Z,14.65
2023-03-04T01:20:12.822Z,20.60
2023-03-04T01:22:41.207Z,20.25
2023-03-04T01:25:10.817Z,20.48
2023-03-04T01:27:39.244Z,18.23
2023-03-04T01:30:10.609Z,12.52
2023-03-04T01:32:39.037Z,18.10
2023-03-04T01:35:08.010Z,16.05
2023-03-04T01:37:36.423Z,13.88
2023-03-04T01:40:05.820Z,12.30
2023-03-04T01:42:37.100Z,15.23
2023-03-04T01:45:06.724Z,18.85
2023-03-04T01:47:36.845Z,10.38
2023-03-04T01:50:08.560Z,17.23
2023-03-04T01:52:36.945Z,16.02
2023-03-04T01:55:12.179Z,16.98
2023-03-04T01:57:41.102Z,13.20
2023-03-04T02:00:21.089Z,14.63
2023-03-04T02:02:53.859Z,17.55
2023-03-04T02:05:23.129Z,15.85
2023-03-04T02:07:53.408Z,13.07
2023-03-04T02:10:22.303Z,17.02
2023-03-04T02:12:51.988Z,13.23
2023-03-04T02:15:20.458Z,12.30
2023-03-04T02:17:50.284Z,13.02
2023-03-04T02:20:32.213Z,15.27
2023-03-04T02:23:09.238Z,18.55
2023-03-04T02:25:43.841Z,17.23
2023-03-04T02:28:13.924Z,20.20
2023-03-04T02:30:42.281Z,15.38
2023-03-04T02:33:17.170Z,15.93
2023-03-04T02:35:45.741Z,21.25
2023-03-04T02:38:14.452Z,18.23
2023-03-04T02:40:47.976Z,13.73
2023-03-04T02:43:18.185Z,20.13
2023-03-04T02:45:49.647Z,16.13
2023-03-04T02:48:20.514Z,12.40
2023-03-04T02:50:51.187Z,15.38
2023-03-04T02:53:20.835Z,19.42
2023-03-04T02:55:50.363Z,15.10
2023-03-04T02:58:22.096Z,15.82
2023-03-04T03:00:50.485Z,12.45
2023-03-04T03:03:18.871Z,11.32
2023-03-04T03:05:47.513Z,13.55
2023-03-04T03:08:16.111Z,20.00
2023-03-04T03:10:44.656Z,18.30
2023-03-04T03:13:13.291Z,17.77
2023-03-04T03:15:43.349Z,11.20
2023-03-04T03:18:12.788Z,16.42
2023-03-04T03:20:43.529Z,22.40
2023-03-04T03:23:12.007Z,16.45
2023-03-04T03:25:40.310Z,13.30
2023-03-04T03:28:08.594Z,15.35
2023-03-04T03:30:37.138Z,16.77
2023-03-04T03:33:09.563Z,16.70
2023-03-04T03:35:39.162Z,13.48
2023-03-04T03:38:07.505Z,12.93
2023-03-04T03:40:35.782Z,16.70
2023-03-04T03:43:04.140Z,12.13
2023-03-04T03:45:32.502Z,19.52
2023-03-04T03:48:00.815Z,15.98
2023-03-04T03:50:30.508Z,8.15
2023-03-04T03:52:58.826Z,17.63
2023-03-04T03:55:27.224Z,13.52
2023-03-04T03:57:55.592Z,13.65
2023-03-04T04:00:24.442Z,14.70
2023-03-04T04:02:53.873Z,13.85
2023-03-04T04:05:22.202Z,12.32
2023-03-04T04:07:53.971Z,20.23
2023-03-04T04:10:22.592Z,14.23
2023-03-04T04:12:50.858Z,10.73
2023-03-04T04:15:19.145Z,10.85
2023-03-04T04:17:47.484Z,14.45
2023-03-04T04:20:15.774Z,11.02
2023-03-04T04:22:44.088Z,14.02
2023-03-04T04:25:13.809Z,11.60
2023-03-04T04:27:42.316Z,18.38
2023-03-04T04:30:12.017Z,10.27
2023-03-04T04:32:40.476Z,12.10
2023-03-04T04:35:09.846Z,14.93
2023-03-04T04:37:38.230Z,15.93
2023-03-04T04:40:07.579Z,13.13
2023-03-04T04:42:37.624Z,13.30
2023-03-04T04:45:07.070Z,17.90
2023-03-04T04:47:35.422Z,12.65
2023-03-04T04:50:03.879Z,13.57
2023-03-04T04:52:32.205Z,14.98
2023-03-04T04:55:00.572Z,12.60
2023-03-04T04:57:28.864Z,17.40
2023-03-04T04:59:58.590Z,9.63
2023-03-04T05:02:26.959Z,17.95
2023-03-04T05:04:55.290Z,16.83
2023-03-04T05:07:23.599Z,16.75
2023-03-04T05:09:51.934Z,14.02
2023-03-04T05:12:20.257Z,17.05
2023-03-04T05:14:48.655Z,21.00
2023-03-04T05:17:18.543Z,20.65
2023-03-04T05:19:46.826Z,12.80
2023-03-04T05:22:15.385Z,14.15
2023-03-04T05:24:43.799Z,14.93
2023-03-04T05:27:12.432Z,14.75
2023-03-04T05:29:40.758Z,14.27
2023-03-04T05:32:09.100Z,15.65
2023-03-04T05:34:38.868Z,16.98
2023-03-04T05:37:07.159Z,10.20
2023-03-04T05:39:35.440Z,17.35
2023-03-04T05:42:03.714Z,18.33
2023-03-04T05:44:32.029Z,15.15
2023-03-04T05:47:00.362Z,8.25
2023-03-04T05:49:28.612Z,19.20
2023-03-04T05:51:58.293Z,12.45
2023-03-04T05:54:26.542Z,19.77
2023-03-04T05:56:54.897Z,13.48
2023-03-04T05:59:23.633Z,18.60
2023-03-04T06:01:52.121Z,18.48
2023-03-04T06:04:20.643Z,16.98
2023-03-04T06:06:48.997Z,13.75
2023-03-04T06:09:21.126Z,12.10
2023-03-04T06:11:49.484Z,12.63
2023-03-04T06:14:18.108Z,15.35
2023-03-04T06:16:46.400Z,12.20
2023-03-04T06:19:14.674Z,14.65
2023-03-04T06:21:43.016Z,16.15
2023-03-04T06:24:11.421Z,9.63
2023-03-04T06:26:41.150Z,6.88
2023-03-04T06:29:09.547Z,11.70
2023-03-04T06:31:37.794Z,14.32
2023-03-04T06:34:06.265Z,10.18
2023-03-04T06:36:34.715Z,17.67
2023-03-04T06:39:04.092Z,12.05
2023-03-04T06:41:32.652Z,14.85
2023-03-04T06:44:02.327Z,17.70
2023-03-04T06:46:30.717Z,22.50
2023-03-04T06:48:59.023Z,15.60
2023-03-04T06:51:28.005Z,16.35
2023-03-04T06:53:56.818Z,15.30
2023-03-04T06:56:25.191Z,19.80
2023-03-04T06:58:53.466Z,14.18
2023-03-04T07:01:24.462Z,15.52
2023-03-04T07:03:54.414Z,15.63
2023-03-04T07:06:25.182Z,19.40
2023-03-04T07:08:53.978Z,20.70
2023-03-04T07:11:23.631Z,27.42
2023-03-04T07:13:52.577Z,25.13
2023-03-04T07:16:23.598Z,16.13
2023-03-04T07:18:52.018Z,19.77
2023-03-04T07:21:20.495Z,28.33
2023-03-04T07:23:48.914Z,15.55
2023-03-04T07:26:17.559Z,26.45
2023-03-04T07:28:46.339Z,23.10
2023-03-04T07:31:20.820Z,22.50
2023-03-04T07:33:50.972Z,30.95
2023-03-04T07:36:20.196Z,22.90
2023-03-04T07:38:50.716Z,21.70
2023-03-04T07:41:20.090Z,28.42
2023-03-04T07:43:48.405Z,19.15
2023-03-04T07:46:17.055Z,24.88
2023-03-04T07:48:45.416Z,27.70
2023-03-04T07:51:17.206Z,24.25
2023-03-04T07:53:47.920Z,24.73
2023-03-04T07:56:18.597Z,21.33
2023-03-04T07:58:47.409Z,22.42
2023-03-04T08:01:17.253Z,30.35
2023-03-04T08:03:46.019Z,28.80
2023-03-04T08:06:17.941Z,24.42
2023-03-04T08:08:46.608Z,24.95
2023-03-04T08:11:16.913Z,22.35
2023-03-04T08:13:45.317Z,23.13
2023-03-04T08:16:15.538Z,30.90
2023-03-04T08:18:44.331Z,26.13
2023-03-04T08:21:13.514Z,25.83
2023-03-04T08:23:43.549Z,21.55
2023-03-04T08:26:14.337Z,29.02
2023-03-04T08:28:43.196Z,28.75
2023-03-04T08:31:11.697Z,25.02
2023-03-04T08:33:40.114Z,22.75
2023-03-04T08:36:09.463Z,33.63
2023-03-04T08:38:37.881Z,22.15
2023-03-04T08:41:07.666Z,20.50
2023-03-04T08:43:36.238Z,24.33
2023-03-04T08:46:04.906Z,23.63
2023-03-04T08:48:33.292Z,18.13
2023-03-04T08:51:01.887Z,17.20
2023-03-04T08:53:30.293Z,17.98
2023-03-04T08:55:59.065Z,17.77
2023-03-04T08:58:31.992Z,12.38
2023-03-04T09:01:01.155Z,20.52
2023-03-04T09:03:29.927Z,16.88
2023-03-04T09:05:58.263Z,15.00
2023-03-04T09:08:26.782Z,13.80
2023-03-04T09:10:56.083Z,13.27
2023-03-04T09:13:26.341Z,13.93
2023-03-04T09:15:56.990Z,14.65
2023-03-04T09:18:26.689Z,16.08
2023-03-04T09:20:56.071Z,13.27
2023-03-04T09:23:24.622Z,14.00
2023-03-04T09:25:52.947Z,17.52
2023-03-04T09:28:21.686Z,22.20
2023-03-04T09:30:50.430Z,21.27
2023-03-04T09:33:21.795Z,23.63
2023-03-04T09:35:50.161Z,21.88
2023-03-04T09:38:18.488Z,19.55
2023-03-04T09:40:50.616Z,25.83
2023-03-04T09:43:23.757Z,23.48
2023-03-04T09:45:56.388Z,22.40
2023-03-04T09:48:29.310Z,24.63
2023-03-04T09:51:08.197Z,19.05
2023-03-04T09:53:44.918Z,29.17
2023-03-04T09:56:13.404Z,24.27
2023-03-04T09:58:49.744Z,20.00
2023-03-04T10:01:23.461Z,21.95
2023-03-04T10:03:56.557Z,27.67
2023-03-04T10:06:25.547Z,21.13
2023-03-04T10:08:59.505Z,24.17
2023-03-04T10:11:31.232Z,27.05
2023-03-04T10:14:07.523Z,27.25
2023-03-04T10:16:42.502Z,21.45
2023-03-04T10:19:30.702Z,29.23
2023-03-04T10:21:59.121Z,22.75
2023-03-04T10:24:30.157Z,20.27
2023-03-04T10:27:04.998Z,27.70
2023-03-04T10:29:35.243Z,25.13
2023-03-04T10:32:03.662Z,18.33
2023-03-04T10:34:33.376Z,31.98
2023-03-04T10:37:05.675Z,22.33
2023-03-04T10:39:36.761Z,30.35
2023-03-04T10:42:07.668Z,28.90
2023-03-04T10:44:38.698Z,24.42
2023-03-04T10:47:14.299Z,25.17
2023-03-04T10:49:53.930Z,29.65
2023-03-04T10:52:29.704Z,23.02
2023-03-04T10:54:59.890Z,26.85
2023-03-04T10:57:35.215Z,22.42
2023-03-04T11:00:21.471Z,24.80
2023-03-04T11:02:50.588Z,22.80
2023-03-04T11:05:22.680Z,26.77
2023-03-04T11:07:56.255Z,26.15
2023-03-04T11:10:28.158Z,18.63
2023-03-04T11:13:04.656Z,17.23
2023-03-04T11:15:49.553Z,17.70
2023-03-04T11:18:20.725Z,22.25
2023-03-04T11:20:52.223Z,16.90
2023-03-04T11:23:27.499Z,19.08
2023-03-04T11:26:01.931Z,20.30
2023-03-04T11:28:40.094Z,19.23
2023-03-04T11:31:14.175Z,18.17
2023-03-04T11:33:48.558Z,15.35
2023-03-04T11:36:34.269Z,20.65
2023-03-04T11:39:04.846Z,17.98
2023-03-04T11:41:36.425Z,19.52
2023-03-04T11:44:08.953Z,23.40
2023-03-04T11:47:01.457Z,20.27
2023-03-04T11:50:07.301Z,16.85
2023-03-04T11:52:50.525Z,24.13
2023-03-04T11:55:39.145Z,24.15
2023-03-04T11:58:33.766Z,14.85
2023-03-04T12:01:08.298Z,23.58
2023-03-04T12:03:58.630Z,23.60
2023-03-04T12:06:36.670Z,16.75
2023-03-04T12:09:19.625Z,17.20
2023-03-04T12:11:59.392Z,17.40
2023-03-04T12:14:31.929Z,20.75
2023-03-04T12:17:18.331Z,22.73
2023-03-04T12:20:02.181Z,22.48
2023-03-04T12:22:40.817Z,20.10
2023-03-04T12:25:38.852Z,21.88
2023-03-04T12:28:52.445Z,25.15
2023-03-04T12:31:38.022Z,22.38
2023-03-04T12:34:37.006Z,20.17
2023-03-04T12:37:39.256Z,20.15
2023-03-04T12:40:34.697Z,20.70
2023-03-04T12:43:28.811Z,19.48
2023-03-04T12:46:05.622Z,21.42
2023-03-04T12:48:37.833Z,25.42
2023-03-04T12:51:27.028Z,20.67
2023-03-04T12:54:04.541Z,15.23
2023-03-04T12:56:42.568Z,19.60
2023-03-04T12:59:17.398Z,19.27
2023-03-04T13:01:51.681Z,15.63
2023-03-04T13:04:27.363Z,19.75
2023-03-04T13:07:12.917Z,27.13
2023-03-04T13:09:50.052Z,21.67
2023-03-04T13:12:22.080Z,20.25
2023-03-04T13:15:27.665Z,21.23
2023-03-04T13:17:58.037Z,21.58
2023-03-04T13:20:35.147Z,25.38
2023-03-04T13:23:05.869Z,25.85
2023-03-04T13:25:40.837Z,21.10
2023-03-04T13:28:23.753Z,27.98
2023-03-04T13:31:15.622Z,24.20
2023-03-04T13:34:04.656Z,18.02
2023-03-04T13:36:49.699Z,16.98
2023-03-04T13:39:38.998Z,24.45
2023-03-04T13:42:49.045Z,17.73
2023-03-04T13:45:33.256Z,23.75
2023-03-04T13:48:06.043Z,21.92
2023-03-04T13:50:46.008Z,26.52
2023-03-04T13:53:45.750Z,19.90
2023-03-04T13:56:31.692Z,23.52
2023-03-04T13:59:23.585Z,20.15
2023-03-04T14:02:04.309Z,19.35
2023-03-04T14:04:36.408Z,17.60
2023-03-04T14:07:19.079Z,19.52
2023-03-04T14:09:59.230Z,28.42
2023-03-04T14:12:29.666Z,22.65
2023-03-04T14:15:00.374Z,22.23
2023-03-04T14:17:31.414Z,19.58
2023-03-04T14:20:01.926Z,18.40
2023-03-04T14:22:33.050Z,22.48
2023-03-04T14:25:03.234Z,19.65
2023-03-04T14:27:35.515Z,20.17
2023-03-04T14:30:07.390Z,17.98
2023-03-04T14:32:36.176Z,17.15
2023-03-04T14:35:09.005Z,17.73
2023-03-04T14:37:44.993Z,15.73
2023-03-04T14:40:22.026Z,15.10
2023-03-04T14:42:56.170Z,19.58
2023-03-04T14:45:25.361Z,18.15
2023-03-04T14:47:56.178Z,18.23
2023-03-04T14:50:25.900Z,11.60
2023-03-04T14:53:14.378Z,20.67
2023-03-04T14:55:56.970Z,12.85
2023-03-04T14:58:27.250Z,19.70
2023-03-04T15:01:08.267Z,21.02
2023-03-04T15:03:37.309Z,16.50
2023-03-04T15:06:18.819Z,17.02
2023-03-04T15:08:48.361Z,15.32
2023-03-04T15:11:24.214Z,19.95
2023-03-04T15:13:54.810Z,24.17
2023-03-04T15:16:25.454Z,21.38
2023-03-04T15:18:59.467Z,20.75
2023-03-04T15:21:40.320Z,20.55
2023-03-04T15:24:11.237Z,23.13
2023-03-04T15:26:41.488Z,20.50
2023-03-04T15:29:15.090Z,20.25
2023-03-04T15:31:44.655Z,20.90
2023-03-04T15:34:15.161Z,20.52
2023-03-04T15:36:46.773Z,20.63
2023-03-04T15:39:17.772Z,20.25
2023-03-04T15:41:48.375Z,20.60
2023-03-04T15:44:17.071Z,20.13
2023-03-04T15:46:45.362Z,16.90
2023-03-04T15:49:13.606Z,22.85
2023-03-04T15:51:42.185Z,18.73
2023-03-04T15:54:14.983Z,23.83
2023-03-04T15:56:43.421Z,17.08
2023-03-04T15:59:13.937Z,15.43
2023-03-04T16:01:42.630Z,12.57
2023-03-04T16:04:14.523Z,15.05
2023-03-04T16:06:43.344Z,15.98
2023-03-04T16:09:16.825Z,14.00
2023-03-04T16:11:47.727Z,12.60
2023-03-04T16:14:17.265Z,13.93
2023-03-04T16:16:46.973Z,13.23
2023-03-04T16:19:15.398Z,14.68
2023-03-04T16:21:43.796Z,16.90
2023-03-04T16:24:18.495Z,15.65
2023-03-04T16:26:47.224Z,20.80
2023-03-04T16:29:16.798Z,11.32
2023-03-04T16:31:45.419Z,15.90
2023-03-04T16:34:13.991Z,16.08
2023-03-04T16:36:42.775Z,14.60
2023-03-04T16:39:19.549Z,15.80
2023-03-04T16:41:48.049Z,14.07
2023-03-04T16:44:16.382Z,10.37
2023-03-04T16:46:44.797Z,14.93
2023-03-04T16:49:13.241Z,13.30
2023-03-04T16:51:44.542Z,20.13
2023-03-04T16:54:19.129Z,16.92
2023-03-04T16:56:47.401Z,14.67
2023-03-04T16:59:17.553Z,17.10
2023-03-04T17:01:46.231Z,21.60
2023-03-04T17:04:14.554Z,19.50
2023-03-04T17:06:42.916Z,27.33
2023-03-04T17:09:11.613Z,15.33
2023-03-04T17:11:41.382Z,12.30
2023-03-04T17:14:09.661Z,15.93
2023-03-04T17:16:37.985Z,20.50
2023-03-04T17:19:06.202Z,15.00
2023-03-04T17:21:34.605Z,21.43
2023-03-04T17:24:03.310Z,17.47
2023-03-04T17:26:32.078Z,17.50
2023-03-04T17:29:02.252Z,16.97
2023-03-04T17:31:30.439Z,19.23
2023-03-04T17:33:58.692Z,19.30
2023-03-04T17:36:26.760Z,19.27
2023-03-04T17:38:54.934Z,20.97
2023-03-04T17:41:24.950Z,21.43
2023-03-04T17:43:56.977Z,26.07
2023-03-04T17:46:28.183Z,21.27
2023-03-04T17:48:57.353Z,20.20
2023-03-04T17:51:30.822Z,17.30
2023-03-04T17:54:01.137Z,12.73
2023-03-04T17:56:31.465Z,17.33
2023-03-04T17:59:00.816Z,16.03
2023-03-04T18:01:30.213Z,20.20
2023-03-04T18:03:58.378Z,17.47
2023-03-04T18:06:26.452Z,19.73
2023-03-04T18:08:54.604Z,25.73
2023-03-04T18:11:24.054Z,17.43
2023-03-04T18:13:53.789Z,20.27
2023-03-04T18:16:26.691Z,26.80
2023-03-04T18:18:57.845Z,22.50
2023-03-04T18:21:26.712Z,18.83
2023-03-04T18:23:55.141Z,20.30
2023-03-04T18:26:23.681Z,21.93
2023-03-04T18:28:51.947Z,18.63
2023-03-04T18:31:20.412Z,14.83
2023-03-04T18:33:48.744Z,17.90
2023-03-04T18:36:18.387Z,19.53
2023-03-04T18:38:46.464Z,20.20
2023-03-04T18:41:16.137Z,16.50
2023-03-04T18:43:44.324Z,15.80
2023-03-04T18:46:30.350Z,15.80
2023-03-04T18:49:03.007Z,20.67
2023-03-04T18:51:33.288Z,18.63
2023-03-04T18:54:01.726Z,20.10
2023-03-04T18:56:37.738Z,18.07
2023-03-04T18:59:08.381Z,15.50
2023-03-04T19:01:36.576Z,15.53
2023-03-04T19:04:05.721Z,16.73
2023-03-04T19:06:35.512Z,12.73
2023-03-04T19:09:03.813Z,15.43
2023-03-04T19:11:31.929Z,15.00
2023-03-04T19:13:59.927Z,15.33
2023-03-04T19:16:28.050Z,14.30
2023-03-04T19:18:56.117Z,16.30
2023-03-04T19:21:24.229Z,18.60
2023-03-04T19:23:53.684Z,17.17
2023-03-04T19:26:21.804Z,22.93
2023-03-04T19:28:50.514Z,17.30
2023-03-04T19:31:18.634Z,15.87
2023-03-04T19:33:47.057Z,15.20
2023-03-04T19:36:15.200Z,14.17
2023-03-04T19:38:43.695Z,16.57
2023-03-04T19:41:14.965Z,17.80
2023-03-04T19:43:43.520Z,16.53
2023-03-04T19:46:12.154Z,16.83
2023-03-04T19:48:41.129Z,19.67
2023-03-04T19:51:16.634Z,11.60
2023-03-04T19:53:44.781Z,15.17
2023-03-04T19:56:14.345Z,15.33
2023-03-04T19:58:42.379Z,16.43
2023-03-04T20:01:21.157Z,16.57
2023-03-04T20:03:49.384Z,16.67
2023-03-04T20:06:17.390Z,14.93
2023-03-04T20:08:45.418Z,15.90
2023-03-04T20:11:15.302Z,20.83
2023-03-04T20:13:43.357Z,19.07
2023-03-04T20:16:12.486Z,14.40
2023-03-04T20:18:40.988Z,17.33
2023-03-04T20:21:09.562Z,15.20
2023-03-04T20:23:37.661Z,16.93
2023-03-04T20:26:05.956Z,16.50
2023-03-04T20:28:35.948Z,11.27
2023-03-04T20:31:15.747Z,12.70
2023-03-04T20:33:44.753Z,17.00
2023-03-04T20:36:12.789Z,13.77
2023-03-04T20:38:40.840Z,12.27
2023-03-04T20:41:08.929Z,13.07
2023-03-04T20:43:38.576Z,16.43
2023-03-04T20:46:25.784Z,16.20
2023-03-04T20:48:54.081Z,18.50
2023-03-04T20:51:22.831Z,15.77
2023-03-04T20:53:54.128Z,13.70
2023-03-04T20:56:23.204Z,13.83
2023-03-04T20:58:53.997Z,16.43
2023-03-04T21:01:22.518Z,15.53
2023-03-04T21:03:50.931Z,17.87
2023-03-04T21:06:19.202Z,13.93
2023-03-04T21:08:47.378Z,11.77
2023-03-04T21:11:16.831Z,15.23
2023-03-04T21:13:45.182Z,10.40
2023-03-04T21:16:16.699Z,12.10
2023-03-04T21:18:45.618Z,16.60
2023-03-04T21:21:15.541Z,15.17
2023-03-04T21:23:43.720Z,12.27
2023-03-04T21:26:11.745Z,15.77
2023-03-04T21:28:39.768Z,13.17
2023-03-04T21:31:14.930Z,9.17
2023-03-04T21:33:44.952Z,11.50
2023-03-04T21:36:14.380Z,15.90
2023-03-04T21:38:42.854Z,10.00
2023-03-04T21:41:13.960Z,20.60
2023-03-04T21:43:42.151Z,15.57
2023-03-04T21:46:11.156Z,12.93
2023-03-04T21:48:39.374Z,12.57
2023-03-04T21:51:09.469Z,7.97
2023-03-04T21:53:37.839Z,14.63
2023-03-04T21:56:06.718Z,12.87
2023-03-04T21:58:37.084Z,12.43
2023-03-04T22:01:10.603Z,10.80
2023-03-04T22:03:38.849Z,16.93
2023-03-04T22:06:10.599Z,7.03
2023-03-04T22:08:39.749Z,13.27
2023-03-04T22:11:10.383Z,7.90
2023-03-04T22:13:38.760Z,3.50
2023-03-04T22:16:07.389Z,10.50
2023-03-04T22:18:36.415Z,6.83
2023-03-04T22:21:07.259Z,8.07
2023-03-04T22:23:37.141Z,9.53
2023-03-04T22:26:07.533Z,8.10
2023-03-04T22:28:36.581Z,6.60
2023-03-04T22:31:13.613Z,6.70
2023-03-04T22:33:41.753Z,4.23
2023-03-04T22:36:09.934Z,8.63
2023-03-04T22:38:39.672Z,15.20
2023-03-04T22:41:13.857Z,11.43
2023-03-04T22:43:41.936Z,7.23
2023-03-04T22:46:15.102Z,9.67
2023-03-04T22:48:43.662Z,7.97
2023-03-04T22:51:12.617Z,12.80
2023-03-04T22:53:43.538Z,11.07
2023-03-04T22:56:12.912Z,11.40
2023-03-04T22:58:41.208Z,10.27
2023-03-04T23:01:10.527Z,11.67
2023-03-04T23:03:40.227Z,12.67
2023-03-04T23:06:10.285Z,10.57
2023-03-04T23:08:39.987Z,13.07
2023-03-04T23:11:11.835Z,13.50
2023-03-04T23:13:40.996Z,8.10
2023-03-04T23:16:11.342Z,12.90
2023-03-04T23:18:41.035Z,8.23
2023-03-04T23:21:10.500Z,12.37
2023-03-04T23:23:39.294Z,11.67
2023-03-04T23:26:07.535Z,10.20
2023-03-04T23:28:36.923Z,11.37
2023-03-04T23:31:06.162Z,13.47
2023-03-04T23:33:34.446Z,11.33
2023-03-04T23:36:02.613Z,6.50
2023-03-04T23:38:30.751Z,7.83
2023-03-04T23:40:58.980Z,8.40
2023-03-04T23:43:29.020Z,10.43
2023-03-04T23:45:59.068Z,12.97
2023-03-04T23:48:27.240Z,7.57
2023-03-04T23:50:55.872Z,8.33
2023-03-04T23:53:24.041Z,10.50
2023-03-04T23:55:52.241Z,15.77
2023-03-04T23:58:20.448Z,9.10
